createdAt,value
2016-04-21T00:00:57.836Z,51
2016-04-21T00:01:55.789Z,51
2016-04-21T00:02:53.886Z,51
2016-04-21T00:03:51.920Z,52
2016-04-21T00:04:50.297Z,52
2016-04-21T00:05:48.472Z,52
2016-04-21T00:06:46.818Z,52
2016-04-21T00:07:47.852Z,52
2016-04-21T00:08:46.152Z,52
2016-04-21T00:09:44.420Z,52
2016-04-21T00:10:42.736Z,52
2016-04-21T00:11:41.004Z,52
2016-04-21T00:12:39.288Z,52
2016-04-21T00:13:37.697Z,52
2016-04-21T00:14:35.871Z,52
2016-04-21T00:15:34.155Z,52
2016-04-21T00:16:32.782Z,52
2016-04-21T00:17:33.895Z,52
2016-04-21T00:18:32.351Z,52
2016-04-21T00:19:30.854Z,52
2016-04-21T00:20:29.154Z,52
2016-04-21T00:21:27.718Z,52
2016-04-21T00:22:26.237Z,52
2016-04-21T00:23:24.739Z,52
2016-04-21T00:24:23.335Z,52
2016-04-21T00:25:21.869Z,52
2016-04-21T00:26:20.575Z,52
2016-04-21T00:27:21.484Z,52
2016-04-21T00:28:20.081Z,52
2016-04-21T00:29:18.568Z,52
2016-04-21T00:30:17.086Z,53
2016-04-21T00:31:15.901Z,53
2016-04-21T00:32:14.685Z,53
2016-04-21T00:33:13.484Z,53
2016-04-21T00:34:12.269Z,53
2016-04-21T00:35:11.099Z,53
2016-04-21T00:36:10.040Z,53
2016-04-21T00:37:10.949Z,53
2016-04-21T00:38:09.732Z,53
2016-04-21T00:39:08.533Z,53
2016-04-21T00:40:07.441Z,52
2016-04-21T00:41:06.162Z,53
2016-04-21T00:42:04.946Z,52
2016-04-21T00:43:03.715Z,52
2016-04-21T00:44:02.514Z,53
2016-04-21T00:45:01.346Z,53
2016-04-21T00:46:00.191Z,52
2016-04-21T00:47:01.179Z,52
2016-04-21T00:48:00.103Z,53
2016-04-21T00:48:58.887Z,52
2016-04-21T00:49:57.606Z,53
2016-04-21T00:50:56.390Z,53
2016-04-21T00:51:55.173Z,53
2016-04-21T00:52:53.927Z,53
2016-04-21T00:53:52.788Z,53
2016-04-21T00:54:51.698Z,53
2016-04-21T00:55:50.404Z,53
2016-04-21T00:56:51.421Z,53
2016-04-21T00:57:50.221Z,53
2016-04-21T00:58:49.005Z,53
2016-04-21T00:59:47.851Z,53
2016-04-21T01:00:46.636Z,53
2016-04-21T01:01:45.435Z,53
2016-04-21T01:02:44.312Z,53
2016-04-21T01:03:43.112Z,53
2016-04-21T01:04:41.818Z,53
2016-04-21T01:06:41.805Z,53
2016-04-21T01:07:40.774Z,53
2016-04-21T01:08:39.447Z,53
2016-04-21T01:09:38.298Z,53
2016-04-21T01:10:37.099Z,53
2016-04-21T01:11:35.915Z,53
2016-04-21T01:12:34.715Z,53
2016-04-21T01:13:33.531Z,53
2016-04-21T01:14:32.374Z,53
2016-04-21T01:15:31.461Z,53
2016-04-21T01:16:32.610Z,53
2016-04-21T01:17:31.556Z,53
2016-04-21T01:18:30.611Z,53
2016-04-21T01:19:29.666Z,53
2016-04-21T01:20:28.827Z,53
2016-04-21T01:21:27.769Z,53
2016-04-21T01:22:26.810Z,53
2016-04-21T01:23:25.877Z,53
2016-04-21T01:24:24.928Z,53
2016-04-21T01:25:24.151Z,53
2016-04-21T01:26:25.060Z,53
2016-04-21T01:27:24.143Z,53
2016-04-21T01:28:23.146Z,53
2016-04-21T01:29:22.211Z,53
2016-04-21T01:30:21.198Z,53
2016-04-21T01:31:20.342Z,53
2016-04-21T01:32:19.486Z,53
2016-04-21T01:33:18.536Z,53
2016-04-21T01:34:17.460Z,53
2016-04-21T01:35:16.713Z,53
2016-04-21T01:36:17.623Z,53
2016-04-21T01:37:16.640Z,54
2016-04-21T01:38:16.129Z,54
2016-04-21T01:39:15.271Z,54
2016-04-21T01:40:14.571Z,54
2016-04-21T01:42:13.186Z,54
2016-04-21T01:43:12.484Z,54
2016-04-21T01:44:11.925Z,54
2016-04-21T01:45:11.178Z,54
2016-04-21T01:46:12.181Z,54
2016-04-21T01:47:11.465Z,54
2016-04-21T01:48:10.780Z,54
2016-04-21T01:49:10.080Z,54
2016-04-21T01:50:09.378Z,54
2016-04-21T01:51:08.694Z,54
2016-04-21T01:52:07.994Z,54
2016-04-21T01:53:07.325Z,54
2016-04-21T01:54:06.609Z,54
2016-04-21T01:55:05.971Z,54
2016-04-21T01:56:06.989Z,54
2016-04-21T01:57:06.288Z,54
2016-04-21T01:58:05.604Z,54
2016-04-21T01:59:05.012Z,54
2016-04-21T02:00:04.343Z,54
2016-04-21T02:01:03.502Z,54
2016-04-21T02:02:02.818Z,54
2016-04-21T02:03:02.118Z,54
2016-04-21T02:04:01.245Z,54
2016-04-21T02:05:00.794Z,54
2016-04-21T02:06:01.937Z,53
2016-04-21T02:07:00.972Z,53
2016-04-21T02:07:59.910Z,54
2016-04-21T02:08:59.209Z,54
2016-04-21T02:09:58.665Z,53
2016-04-21T02:10:57.557Z,53
2016-04-21T02:11:56.623Z,54
2016-04-21T02:12:55.922Z,54
2016-04-21T02:13:55.223Z,53
2016-04-21T02:15:55.384Z,54
2016-04-21T02:16:54.683Z,54
2016-04-21T02:17:53.983Z,54
2016-04-21T02:18:53.266Z,54
2016-04-21T02:19:52.566Z,54
2016-04-21T02:20:51.882Z,54
2016-04-21T02:21:51.181Z,54
2016-04-21T02:22:50.511Z,54
2016-04-21T02:23:49.796Z,54
2016-04-21T02:24:49.175Z,54
2016-04-21T02:25:50.302Z,54
2016-04-21T02:26:49.492Z,54
2016-04-21T02:27:48.900Z,54
2016-04-21T02:28:48.122Z,54
2016-04-21T02:29:47.516Z,54
2016-04-21T02:30:46.736Z,54
2016-04-21T02:31:46.005Z,54
2016-04-21T02:32:45.320Z,54
2016-04-21T02:33:44.760Z,54
2016-04-21T02:34:43.982Z,54
2016-04-21T02:35:45.140Z,54
2016-04-21T02:36:44.300Z,54
2016-04-21T02:37:43.599Z,54
2016-04-21T02:38:42.915Z,54
2016-04-21T02:39:42.230Z,54
2016-04-21T02:40:41.513Z,54
2016-04-21T02:41:40.845Z,54
2016-04-21T02:42:40.378Z,54
2016-04-21T02:43:39.678Z,54
2016-04-21T02:44:39.415Z,54
2016-04-21T02:45:40.323Z,54
2016-04-21T02:46:40.030Z,54
2016-04-21T02:47:39.439Z,54
2016-04-21T02:48:38.989Z,54
2016-04-21T02:49:38.569Z,54
2016-04-21T02:50:38.353Z,54
2016-04-21T02:51:38.278Z,54
2016-04-21T02:52:37.983Z,54
2016-04-21T02:53:37.783Z,54
2016-04-21T02:54:37.676Z,54
2016-04-21T02:55:38.678Z,54
2016-04-21T02:56:38.603Z,54
2016-04-21T02:57:38.293Z,54
2016-04-21T02:58:38.125Z,54
2016-04-21T02:59:37.939Z,54
2016-04-21T03:00:37.739Z,54
2016-04-21T03:01:37.695Z,54
2016-04-21T03:02:37.479Z,54
2016-04-21T03:03:37.294Z,54
2016-04-21T03:04:37.032Z,54
2016-04-21T03:05:38.065Z,54
2016-04-21T03:06:37.880Z,54
2016-04-21T03:07:37.679Z,54
2016-04-21T03:08:37.495Z,55
2016-04-21T03:09:37.311Z,55
2016-04-21T03:10:37.235Z,55
2016-04-21T03:11:36.941Z,55
2016-04-21T03:12:36.740Z,55
2016-04-21T03:13:36.556Z,54
2016-04-21T03:14:36.168Z,54
2016-04-21T03:15:37.186Z,54
2016-04-21T03:16:36.860Z,54
2016-04-21T03:17:36.316Z,54
2016-04-21T03:18:35.865Z,54
2016-04-21T03:19:35.415Z,54
2016-04-21T03:20:35.120Z,54
2016-04-21T03:21:34.535Z,54
2016-04-21T03:22:34.088Z,54
2016-04-21T03:23:33.654Z,54
2016-04-21T03:24:33.281Z,54
2016-04-21T03:25:34.393Z,54
2016-04-21T03:26:33.849Z,54
2016-04-21T03:27:33.398Z,55
2016-04-21T03:28:33.262Z,55
2016-04-21T03:29:33.170Z,55
2016-04-21T03:30:32.859Z,55
2016-04-21T03:31:32.644Z,55
2016-04-21T03:32:32.475Z,55
2016-04-21T03:33:32.259Z,55
2016-04-21T03:35:33.139Z,55
2016-04-21T03:36:33.079Z,55
2016-04-21T03:37:32.786Z,55
2016-04-21T03:38:32.600Z,55
2016-04-21T03:39:32.416Z,55
2016-04-21T03:40:32.308Z,55
2016-04-21T03:41:31.999Z,55
2016-04-21T03:42:31.986Z,55
2016-04-21T03:43:31.739Z,54
2016-04-21T03:44:31.491Z,55
2016-04-21T03:45:32.619Z,54
2016-04-21T03:46:32.324Z,54
2016-04-21T03:47:32.141Z,54
2016-04-21T03:48:31.940Z,55
2016-04-21T03:49:32.052Z,55
2016-04-21T03:50:32.070Z,55
2016-04-21T03:51:32.135Z,55
2016-04-21T03:52:32.200Z,55
2016-04-21T03:53:32.407Z,55
2016-04-21T03:54:32.487Z,55
2016-04-21T03:55:33.412Z,55
2016-04-21T03:56:33.602Z,55
2016-04-21T03:57:33.635Z,55
2016-04-21T03:58:33.607Z,55
2016-04-21T03:59:33.797Z,55
2016-04-21T04:00:33.706Z,55
2016-04-21T04:01:33.803Z,55
2016-04-21T04:02:33.884Z,55
2016-04-21T04:03:33.901Z,55
2016-04-21T04:04:34.045Z,55
2016-04-21T04:05:35.032Z,55
2016-04-21T04:06:35.128Z,55
2016-04-21T04:07:35.178Z,55
2016-04-21T04:08:35.227Z,55
2016-04-21T04:09:35.403Z,55
2016-04-21T04:10:35.358Z,55
2016-04-21T04:11:35.408Z,55
2016-04-21T04:12:35.472Z,54
2016-04-21T04:13:35.288Z,54
2016-04-21T04:14:35.165Z,54
2016-04-21T04:15:36.308Z,55
2016-04-21T04:16:35.983Z,55
2016-04-21T04:17:35.908Z,55
2016-04-21T04:18:35.599Z,55
2016-04-21T04:19:35.413Z,55
2016-04-21T04:20:35.244Z,55
2016-04-21T04:21:35.169Z,55
2016-04-21T04:22:34.844Z,55
2016-04-21T04:23:34.674Z,55
2016-04-21T04:24:34.552Z,55
2016-04-21T04:25:35.554Z,55
2016-04-21T04:26:35.370Z,55
2016-04-21T04:27:35.201Z,55
2016-04-21T04:28:34.968Z,55
2016-04-21T04:29:34.785Z,55
2016-04-21T04:30:34.709Z,55
2016-04-21T04:31:34.524Z,55
2016-04-21T04:32:34.245Z,55
2016-04-21T04:33:34.279Z,55
2016-04-21T04:34:34.438Z,55
2016-04-21T04:35:35.535Z,55
2016-04-21T04:36:35.600Z,55
2016-04-21T04:37:35.556Z,55
2016-04-21T04:38:35.653Z,55
2016-04-21T04:39:35.811Z,55
2016-04-21T04:40:35.767Z,55
2016-04-21T04:41:35.800Z,55
2016-04-21T04:42:35.866Z,55
2016-04-21T04:43:35.931Z,55
2016-04-21T04:45:37.436Z,55
2016-04-21T04:46:37.392Z,55
2016-04-21T04:47:37.566Z,55
2016-04-21T04:48:37.523Z,55
2016-04-21T04:49:37.822Z,55
2016-04-21T04:50:37.888Z,55
2016-04-21T04:51:38.202Z,55
2016-04-21T04:52:38.533Z,55
2016-04-21T04:53:38.849Z,55
2016-04-21T04:54:39.211Z,55
2016-04-21T04:55:40.246Z,55
2016-04-21T04:56:40.560Z,55
2016-04-21T04:57:40.860Z,55
2016-04-21T04:58:41.174Z,55
2016-04-21T04:59:41.506Z,55
2016-04-21T05:00:41.836Z,55
2016-04-21T05:01:42.262Z,55
2016-04-21T05:02:42.607Z,55
2016-04-21T05:03:42.767Z,55
2016-04-21T05:04:43.128Z,56
2016-04-21T05:06:44.774Z,56
2016-04-21T05:07:45.292Z,56
2016-04-21T05:08:45.890Z,56
2016-04-21T05:09:46.470Z,56
2016-04-21T05:10:47.020Z,56
2016-04-21T05:11:47.709Z,56
2016-04-21T05:12:48.197Z,55
2016-04-21T05:13:48.589Z,56
2016-04-21T05:14:49.108Z,55
2016-04-21T05:15:50.111Z,55
2016-04-21T05:16:50.442Z,55
2016-04-21T05:17:50.866Z,55
2016-04-21T05:18:51.103Z,55
2016-04-21T05:19:51.388Z,55
2016-04-21T05:20:51.734Z,55
2016-04-21T05:21:52.018Z,55
2016-04-21T05:22:52.333Z,55
2016-04-21T05:23:52.679Z,55
2016-04-21T05:24:53.026Z,55
2016-04-21T05:25:54.169Z,55
2016-04-21T05:26:54.359Z,55
2016-04-21T05:27:54.815Z,55
2016-04-21T05:28:55.021Z,55
2016-04-21T05:29:55.321Z,55
2016-04-21T05:30:55.636Z,55
2016-04-21T05:31:55.967Z,55
2016-04-21T05:32:56.270Z,55
2016-04-21T05:33:56.696Z,55
2016-04-21T05:34:56.918Z,55
2016-04-21T05:35:58.092Z,55
2016-04-21T05:36:58.313Z,55
2016-04-21T05:37:58.603Z,55
2016-04-21T05:38:59.012Z,55
2016-04-21T05:39:59.234Z,55
2016-04-21T05:40:59.565Z,55
2016-04-21T05:41:59.879Z,55
2016-04-21T05:43:00.194Z,55
2016-04-21T05:44:00.526Z,55
2016-04-21T05:45:00.872Z,55
2016-04-21T05:46:01.889Z,55
2016-04-21T05:47:02.221Z,55
2016-04-21T05:48:02.520Z,55
2016-04-21T05:49:02.836Z,55
2016-04-21T05:50:03.151Z,55
2016-04-21T05:51:03.466Z,55
2016-04-21T05:52:03.906Z,55
2016-04-21T05:53:03.846Z,55
2016-04-21T05:54:03.928Z,55
2016-04-21T05:55:04.149Z,55
2016-04-21T05:56:05.041Z,55
2016-04-21T05:57:05.108Z,55
2016-04-21T05:58:05.282Z,55
2016-04-21T05:59:05.346Z,55
2016-04-21T06:00:05.053Z,55
2016-04-21T06:01:04.852Z,55
2016-04-21T06:02:04.777Z,55
2016-04-21T06:03:04.468Z,55
2016-04-21T06:04:04.298Z,55
2016-04-21T06:06:05.335Z,55
2016-04-21T06:07:05.134Z,55
2016-04-21T06:08:04.902Z,55
2016-04-21T06:09:04.608Z,55
2016-04-21T06:10:04.407Z,55
2016-04-21T06:11:04.207Z,55
2016-04-21T06:12:04.007Z,55
2016-04-21T06:13:03.837Z,54
2016-04-21T06:14:03.372Z,54
2016-04-21T06:15:03.015Z,54
2016-04-21T06:16:04.034Z,55
2016-04-21T06:17:03.833Z,54
2016-04-21T06:18:03.383Z,54
2016-04-21T06:19:02.917Z,54
2016-04-21T06:20:02.591Z,54
2016-04-21T06:21:02.062Z,54
2016-04-21T06:22:01.705Z,54
2016-04-21T06:23:01.161Z,54
2016-04-21T06:24:00.742Z,54
2016-04-21T06:25:00.307Z,54
2016-04-21T06:26:01.450Z,54
2016-04-21T06:27:01.000Z,54
2016-04-21T06:28:00.550Z,54
2016-04-21T06:29:00.005Z,54
2016-04-21T06:29:59.665Z,54
2016-04-21T06:30:59.089Z,54
2016-04-21T06:31:58.655Z,54
2016-04-21T06:32:58.314Z,54
2016-04-21T06:33:57.504Z,54
2016-04-21T06:34:56.866Z,54
2016-04-21T06:35:57.884Z,54
2016-04-21T06:36:57.184Z,54
2016-04-21T06:37:56.499Z,53
2016-04-21T06:38:55.658Z,53
2016-04-21T06:39:54.692Z,53
2016-04-21T06:40:53.366Z,53
2016-04-21T06:41:52.182Z,52
2016-04-21T06:42:50.731Z,52
2016-04-21T06:43:49.280Z,52
2016-04-21T06:44:47.627Z,52
2016-04-21T06:45:48.645Z,52
2016-04-21T06:46:46.914Z,52
2016-04-21T06:47:45.307Z,51
2016-04-21T06:48:43.232Z,51
2016-04-21T06:49:41.390Z,51
2016-04-21T06:50:39.143Z,51
2016-04-21T06:51:36.959Z,51
2016-04-21T06:52:34.586Z,51
2016-04-21T06:53:32.401Z,51
2016-04-21T06:54:30.342Z,51
2016-04-21T06:55:31.328Z,51
2016-04-21T06:56:28.988Z,51
2016-04-21T06:57:26.787Z,51
2016-04-21T06:58:24.539Z,51
2016-04-21T06:59:22.324Z,51
2016-04-21T07:00:20.092Z,51
2016-04-21T07:01:17.920Z,50
2016-04-21T07:02:19.469Z,50
2016-04-21T07:03:21.038Z,50
2016-04-21T07:04:22.727Z,50
2016-04-21T07:05:23.699Z,50
2016-04-21T07:06:25.265Z,50
2016-04-21T07:07:26.860Z,50
2016-04-21T07:08:28.285Z,50
2016-04-21T07:09:29.648Z,50
2016-04-21T07:10:30.853Z,50
2016-04-21T07:11:32.278Z,50
2016-04-21T07:13:34.815Z,50
2016-04-21T07:14:36.192Z,50
2016-04-21T07:15:37.304Z,50
2016-04-21T07:16:38.666Z,50
2016-04-21T07:17:39.825Z,49
2016-04-21T07:18:41.015Z,49
2016-04-21T07:19:41.986Z,49
2016-04-21T07:20:43.178Z,49
2016-04-21T07:21:44.148Z,49
2016-04-21T07:22:45.197Z,49
2016-04-21T07:23:46.014Z,49
2016-04-21T07:24:46.907Z,49
2016-04-21T07:25:47.909Z,49
2016-04-21T07:26:48.647Z,49
2016-04-21T07:27:49.525Z,49
2016-04-21T07:28:50.355Z,49
2016-04-21T07:29:51.186Z,49
2016-04-21T07:30:51.985Z,49
2016-04-21T07:31:52.785Z,49
2016-04-21T07:32:53.631Z,49
2016-04-21T07:33:54.555Z,49
2016-04-21T07:34:55.293Z,49
2016-04-21T07:35:56.326Z,49
2016-04-21T07:36:56.876Z,49
2016-04-21T07:37:57.552Z,49
2016-04-21T07:38:58.069Z,49
2016-04-21T07:39:58.556Z,49
2016-04-21T07:40:59.232Z,49
2016-04-21T07:41:59.687Z,48
2016-04-21T07:43:00.033Z,48
2016-04-21T07:44:00.302Z,48
2016-04-21T07:45:00.663Z,48
2016-04-21T07:46:01.682Z,48
2016-04-21T07:47:01.997Z,48
2016-04-21T07:48:02.296Z,48
2016-04-21T07:49:02.628Z,47
2016-04-21T07:50:02.676Z,47
2016-04-21T07:51:02.836Z,47
2016-04-21T07:52:02.932Z,47
2016-04-21T07:53:02.779Z,47
2016-04-21T07:54:02.594Z,47
2016-04-21T07:55:02.503Z,47
2016-04-21T07:56:03.506Z,47
2016-04-21T07:57:03.320Z,47
2016-04-21T07:58:03.230Z,47
2016-04-21T07:59:02.951Z,47
2016-04-21T08:00:02.703Z,47
2016-04-21T08:01:02.519Z,47
2016-04-21T08:02:02.427Z,47
2016-04-21T08:03:02.119Z,47
2016-04-21T08:04:02.027Z,47
2016-04-21T08:05:01.888Z,47
2016-04-21T08:06:02.783Z,47
2016-04-21T08:07:02.566Z,47
2016-04-21T08:08:02.491Z,47
2016-04-21T08:09:02.307Z,47
2016-04-21T08:10:02.090Z,47
2016-04-21T08:11:01.921Z,47
2016-04-21T08:12:01.595Z,47
2016-04-21T08:13:01.379Z,47
2016-04-21T08:14:01.288Z,47
2016-04-21T08:15:01.026Z,47
2016-04-21T08:16:02.044Z,47
2016-04-21T08:17:01.843Z,47
2016-04-21T08:18:01.643Z,47
2016-04-21T08:19:01.442Z,47
2016-04-21T08:20:01.243Z,47
2016-04-21T08:21:01.042Z,46
2016-04-21T08:22:00.701Z,46
2016-04-21T08:23:00.125Z,46
2016-04-21T08:23:59.674Z,46
2016-04-21T08:24:59.396Z,46
2016-04-21T08:26:00.289Z,46
2016-04-21T08:26:59.573Z,46
2016-04-21T08:27:59.138Z,46
2016-04-21T08:28:58.407Z,46
2016-04-21T08:29:57.691Z,45
2016-04-21T08:30:56.474Z,44
2016-04-21T08:31:54.759Z,43
2016-04-21T08:32:52.917Z,42
2016-04-21T08:33:54.483Z,42
2016-04-21T08:34:55.736Z,41
2016-04-21T08:35:56.754Z,41
2016-04-21T08:36:57.819Z,41
2016-04-21T08:37:58.634Z,41
2016-04-21T08:38:59.433Z,41
2016-04-21T08:40:00.265Z,41
2016-04-21T08:41:01.063Z,41
2016-04-21T08:42:01.880Z,41
2016-04-21T08:43:02.694Z,41
2016-04-21T08:44:03.494Z,40
2016-04-21T08:45:04.107Z,40
2016-04-21T08:46:05.109Z,40
2016-04-21T08:47:05.533Z,39
2016-04-21T08:48:05.599Z,39
2016-04-21T08:49:05.524Z,39
2016-04-21T08:50:05.557Z,38
2016-04-21T08:51:05.481Z,38
2016-04-21T08:52:05.176Z,38
2016-04-21T08:53:05.086Z,38
2016-04-21T08:54:04.761Z,38
2016-04-21T08:55:04.653Z,38
2016-04-21T08:56:05.625Z,38
2016-04-21T08:57:05.424Z,38
2016-04-21T08:58:05.380Z,39
2016-04-21T08:59:05.399Z,39
2016-04-21T09:00:05.463Z,39
2016-04-21T09:01:05.419Z,40
2016-04-21T09:02:05.689Z,40
2016-04-21T09:03:05.988Z,40
2016-04-21T09:04:06.365Z,40
2016-04-21T09:05:06.680Z,40
2016-04-21T09:06:07.683Z,39
2016-04-21T09:07:08.108Z,39
2016-04-21T09:08:08.391Z,39
2016-04-21T09:09:08.582Z,39
2016-04-21T09:10:08.882Z,39
2016-04-21T09:11:09.321Z,39
2016-04-21T09:12:09.496Z,39
2016-04-21T09:13:09.545Z,39
2016-04-21T09:14:09.611Z,39
2016-04-21T09:15:09.724Z,39
2016-04-21T09:16:10.788Z,39
2016-04-21T09:17:11.040Z,39
2016-04-21T09:18:11.481Z,39
2016-04-21T09:19:11.655Z,39
2016-04-21T09:20:11.971Z,39
2016-04-21T09:21:12.286Z,39
2016-04-21T09:22:12.711Z,40
2016-04-21T09:23:13.150Z,39
2016-04-21T09:24:13.450Z,39
2016-04-21T09:25:13.828Z,39
2016-04-21T09:26:14.831Z,39
2016-04-21T09:27:15.303Z,39
2016-04-21T09:28:15.603Z,39
2016-04-21T09:29:15.761Z,39
2016-04-21T09:30:16.061Z,39
2016-04-21T09:31:16.375Z,39
2016-04-21T09:32:16.722Z,39
2016-04-21T09:33:17.005Z,39
2016-04-21T09:34:17.321Z,39
2016-04-21T09:35:17.699Z,40
2016-04-21T09:36:18.811Z,40
2016-04-21T09:37:19.266Z,40
2016-04-21T09:38:19.957Z,39
2016-04-21T09:39:20.099Z,39
2016-04-21T09:40:20.463Z,40
2016-04-21T09:41:20.996Z,40
2016-04-21T09:42:21.608Z,40
2016-04-21T09:43:22.376Z,40
2016-04-21T09:44:23.207Z,41
2016-04-21T09:45:24.476Z,41
2016-04-21T09:46:25.368Z,41
2016-04-21T09:47:26.418Z,40
2016-04-21T09:48:27.234Z,41
2016-04-21T09:49:28.314Z,41
2016-04-21T09:50:29.429Z,41
2016-04-21T09:51:30.447Z,41
2016-04-21T09:52:31.779Z,41
2016-04-21T09:53:33.125Z,41
2016-04-21T09:54:34.425Z,42
2016-04-21T09:55:36.037Z,43
2016-04-21T09:56:37.070Z,43
2016-04-21T09:57:34.948Z,44
2016-04-21T09:58:33.247Z,44
2016-04-21T09:59:31.423Z,44
2016-04-21T10:00:29.644Z,44
2016-04-21T10:01:28.331Z,45
2016-04-21T10:02:27.006Z,45
2016-04-21T10:03:25.790Z,45
2016-04-21T10:04:24.589Z,45
2016-04-21T10:05:23.482Z,45
2016-04-21T10:06:24.454Z,45
2016-04-21T10:07:23.613Z,45
2016-04-21T10:08:22.647Z,45
2016-04-21T10:09:21.743Z,46
2016-04-21T10:10:21.011Z,46
2016-04-21T10:11:20.328Z,46
2016-04-21T10:12:19.562Z,46
2016-04-21T10:13:22.014Z,46
2016-04-21T10:14:18.358Z,46
2016-04-21T10:15:17.655Z,46
2016-04-21T10:16:18.681Z,46
2016-04-21T10:17:18.013Z,46
2016-04-21T10:18:17.296Z,46
2016-04-21T10:19:16.737Z,46
2016-04-21T10:20:16.303Z,46
2016-04-21T10:21:15.876Z,46
2016-04-21T10:22:15.306Z,46
2016-04-21T10:23:14.878Z,47
2016-04-21T10:24:14.714Z,47
2016-04-21T10:25:14.660Z,47
2016-04-21T10:26:15.572Z,47
2016-04-21T10:27:15.373Z,47
2016-04-21T10:28:15.425Z,47
2016-04-21T10:29:15.602Z,47
2016-04-21T10:30:15.528Z,48
2016-04-21T10:31:15.845Z,48
2016-04-21T10:32:16.160Z,48
2016-04-21T10:33:16.585Z,48
2016-04-21T10:34:16.901Z,48
2016-04-21T10:35:17.155Z,48
2016-04-21T10:36:18.189Z,48
2016-04-21T10:37:18.880Z,48
2016-04-21T10:38:19.337Z,48
2016-04-21T10:39:19.854Z,49
2016-04-21T10:40:20.795Z,49
2016-04-21T10:41:21.501Z,49
2016-04-21T10:42:22.316Z,49
2016-04-21T10:43:23.132Z,49
2016-04-21T10:44:23.946Z,49
2016-04-21T10:45:25.090Z,49
2016-04-21T10:46:26.109Z,50
2016-04-21T10:47:27.423Z,50
2016-04-21T10:48:28.755Z,50
2016-04-21T10:49:30.242Z,50
2016-04-21T10:50:31.542Z,50
2016-04-21T10:51:32.857Z,50
2016-04-21T10:52:34.328Z,50
2016-04-21T10:53:35.893Z,50
2016-04-21T10:54:37.586Z,50
2016-04-21T10:55:39.229Z,51
2016-04-21T10:56:40.169Z,51
2016-04-21T10:57:37.922Z,51
2016-04-21T10:58:35.797Z,51
2016-04-21T10:59:33.487Z,51
2016-04-21T11:00:31.239Z,51
2016-04-21T11:01:29.024Z,51
2016-04-21T11:02:26.808Z,51
2016-04-21T11:03:24.608Z,51
2016-04-21T11:04:22.360Z,51
2016-04-21T11:05:20.207Z,51
2016-04-21T11:06:21.319Z,51
2016-04-21T11:07:18.978Z,51
2016-04-21T11:08:16.777Z,51
2016-04-21T11:09:14.796Z,51
2016-04-21T11:10:12.954Z,51
2016-04-21T11:11:10.863Z,51
2016-04-21T11:12:08.944Z,51
2016-04-21T11:13:06.947Z,51
2016-04-21T11:14:05.106Z,51
2016-04-21T11:15:03.171Z,52
2016-04-21T11:16:04.065Z,51
2016-04-21T11:17:02.099Z,52
2016-04-21T11:18:00.397Z,52
2016-04-21T11:18:58.822Z,52
2016-04-21T11:19:56.965Z,52
2016-04-21T11:20:55.234Z,52
2016-04-21T11:21:53.564Z,52
2016-04-21T11:22:51.818Z,52
2016-04-21T11:23:50.226Z,52
2016-04-21T11:24:48.432Z,52
2016-04-21T11:25:49.481Z,52
2016-04-21T11:26:47.766Z,52
2016-04-21T11:27:46.019Z,52
2016-04-21T11:28:44.428Z,52
2016-04-21T11:29:42.602Z,52
2016-04-21T11:30:40.886Z,52
2016-04-21T11:31:39.169Z,52
2016-04-21T11:32:37.466Z,52
2016-04-21T11:33:35.735Z,52
2016-04-21T11:34:34.113Z,52
2016-04-21T11:35:35.100Z,52
2016-04-21T11:36:33.383Z,52
2016-04-21T11:37:31.793Z,52
2016-04-21T11:38:29.951Z,52
2016-04-21T11:39:28.391Z,52
2016-04-21T11:40:26.535Z,52
2016-04-21T11:41:24.819Z,52
2016-04-21T11:42:23.228Z,52
2016-04-21T11:43:21.402Z,52
2016-04-21T11:44:19.858Z,52
2016-04-21T11:45:20.752Z,52
2016-04-21T11:46:19.036Z,52
2016-04-21T11:47:17.320Z,52
2016-04-21T11:48:15.603Z,52
2016-04-21T11:49:13.903Z,52
2016-04-21T11:50:12.187Z,52
2016-04-21T11:51:10.471Z,52
2016-04-21T11:52:08.974Z,52
2016-04-21T11:53:07.195Z,52
2016-04-21T11:54:05.384Z,52
2016-04-21T11:55:06.403Z,52
2016-04-21T11:56:04.625Z,52
2016-04-21T11:57:02.972Z,52
2016-04-21T11:58:01.381Z,52
2016-04-21T11:58:59.961Z,52
2016-04-21T11:59:57.839Z,52
2016-04-21T12:00:56.122Z,52
2016-04-21T12:01:54.422Z,52
2016-04-21T12:02:52.706Z,52
2016-04-21T12:03:51.147Z,52
2016-04-21T12:04:52.056Z,52
2016-04-21T12:05:50.355Z,52
2016-04-21T12:06:48.749Z,52
2016-04-21T12:07:46.922Z,52
2016-04-21T12:08:45.316Z,52
2016-04-21T12:09:43.507Z,52
2016-04-21T12:10:41.774Z,52
2016-04-21T12:11:40.183Z,52
2016-04-21T12:12:38.355Z,52
2016-04-21T12:13:36.718Z,52
2016-04-21T12:14:37.720Z,52
2016-04-21T12:15:36.145Z,52
2016-04-21T12:16:34.288Z,52
2016-04-21T12:17:32.588Z,52
2016-04-21T12:18:30.856Z,52
2016-04-21T12:19:29.156Z,52
2016-04-21T12:20:27.579Z,52
2016-04-21T12:21:25.723Z,52
2016-04-21T12:22:24.023Z,52
2016-04-21T12:23:22.353Z,52
2016-04-21T12:24:23.388Z,52
2016-04-21T12:25:21.672Z,52
2016-04-21T12:26:20.081Z,52
2016-04-21T12:27:18.239Z,52
2016-04-21T12:28:16.540Z,52
2016-04-21T12:29:14.823Z,52
2016-04-21T12:30:13.122Z,52
2016-04-21T12:31:11.391Z,52
2016-04-21T12:32:09.691Z,52
2016-04-21T12:33:08.147Z,52
2016-04-21T12:34:09.164Z,52
2016-04-21T12:35:07.355Z,52
2016-04-21T12:36:05.747Z,52
2016-04-21T12:37:03.922Z,52
2016-04-21T12:38:02.316Z,52
2016-04-21T12:39:00.506Z,52
2016-04-21T12:39:58.743Z,52
2016-04-21T12:40:57.183Z,52
2016-04-21T12:41:55.358Z,52
2016-04-21T12:42:53.705Z,52
2016-04-21T12:43:54.707Z,52
2016-04-21T12:44:53.007Z,52
2016-04-21T12:45:51.290Z,52
2016-04-21T12:46:49.590Z,52
2016-04-21T12:47:47.874Z,52
2016-04-21T12:48:46.173Z,52
2016-04-21T12:49:44.443Z,52
2016-04-21T12:50:42.742Z,52
2016-04-21T12:51:41.007Z,52
2016-04-21T12:52:39.354Z,52
2016-04-21T12:53:40.498Z,52
2016-04-21T12:54:38.656Z,52
2016-04-21T12:55:36.940Z,52
2016-04-21T12:56:35.348Z,52
2016-04-21T12:57:33.523Z,52
2016-04-21T12:58:31.807Z,52
2016-04-21T12:59:30.076Z,52
2016-04-21T13:00:28.376Z,52
2016-04-21T13:01:26.784Z,52
2016-04-21T13:02:25.022Z,52
2016-04-21T13:03:26.040Z,52
2016-04-21T13:04:24.573Z,52
2016-04-21T13:05:23.107Z,52
2016-04-21T13:06:21.657Z,52
2016-04-21T13:07:20.191Z,52
2016-04-21T13:08:18.725Z,52
2016-04-21T13:09:17.258Z,52
2016-04-21T13:10:15.808Z,52
2016-04-21T13:11:14.358Z,52
2016-04-21T13:12:12.970Z,52
2016-04-21T13:13:13.957Z,52
2016-04-21T13:14:12.506Z,52
2016-04-21T13:15:11.072Z,52
2016-04-21T13:16:09.590Z,52
2016-04-21T13:17:08.124Z,52
2016-04-21T13:18:06.674Z,52
2016-04-21T13:19:05.207Z,52
2016-04-21T13:20:03.773Z,52
2016-04-21T13:22:00.888Z,52
2016-04-21T13:23:01.907Z,52
2016-04-21T13:24:00.534Z,53
2016-04-21T13:24:59.254Z,53
2016-04-21T13:25:58.023Z,53
2016-04-21T13:26:56.822Z,53
2016-04-21T13:27:55.638Z,53
2016-04-21T13:28:54.406Z,53
2016-04-21T13:29:53.206Z,53
2016-04-21T13:30:52.021Z,53
2016-04-21T13:31:50.868Z,53
2016-04-21T13:32:51.886Z,53
2016-04-21T13:33:50.670Z,53
2016-04-21T13:34:49.579Z,53
2016-04-21T13:35:48.253Z,53
2016-04-21T13:36:47.053Z,53
2016-04-21T13:37:45.852Z,53
2016-04-21T13:38:44.633Z,53
2016-04-21T13:39:43.558Z,53
2016-04-21T13:40:42.280Z,53
2016-04-21T13:41:41.205Z,53
2016-04-21T13:42:42.098Z,53
2016-04-21T13:43:40.913Z,53
2016-04-21T13:44:39.696Z,53
2016-04-21T13:45:38.498Z,53
2016-04-21T13:46:37.313Z,53
2016-04-21T13:47:36.082Z,53
2016-04-21T13:48:34.866Z,53
2016-04-21T13:49:33.713Z,53
2016-04-21T13:50:32.481Z,53
2016-04-21T13:51:31.326Z,53
2016-04-21T13:52:32.454Z,53
2016-04-21T13:53:31.161Z,53
2016-04-21T13:54:30.038Z,53
2016-04-21T13:55:28.744Z,53
2016-04-21T13:56:27.512Z,53
2016-04-21T13:57:26.672Z,53
2016-04-21T13:58:25.611Z,53
2016-04-21T13:59:24.770Z,53
2016-04-21T14:00:23.710Z,53
2016-04-21T14:01:22.808Z,53
2016-04-21T14:02:23.825Z,53
2016-04-21T14:03:22.875Z,53
2016-04-21T14:04:21.916Z,53
2016-04-21T14:05:20.965Z,53
2016-04-21T14:06:20.014Z,53
2016-04-21T14:07:19.064Z,53
2016-04-21T14:08:18.129Z,53
2016-04-21T14:09:17.163Z,53
2016-04-21T14:10:16.229Z,53
2016-04-21T14:11:15.356Z,53
2016-04-21T14:12:16.343Z,53
2016-04-21T14:13:15.377Z,53
2016-04-21T14:14:14.568Z,53
2016-04-21T14:15:13.508Z,53
2016-04-21T14:16:12.525Z,53
2016-04-21T14:17:11.575Z,53
2016-04-21T14:18:10.641Z,54
2016-04-21T14:19:09.956Z,53